sensor_id;sensor_type;location;lat;lon;timestamp;pressure;altitude;pressure_sealevel;temperature;humidity
15678;BME280;7939;50.814;6.368;2023-04-10T00:00:38;100455.09;;;14.68;47.98
15678;BME280;7939;50.814;6.368;2023-04-10T00:03:07;100450.81;;;14.67;48.29
15678;BME280;7939;50.814;6.368;2023-04-10T00:05:33;100450.00;;;14.65;48.20
15678;BME280;7939;50.814;6.368;2023-04-10T00:08:00;100456.00;;;14.66;48.36
15678;BME280;7939;50.814;6.368;2023-04-10T00:10:27;100455.13;;;14.64;48.15
15678;BME280;7939;50.814;6.368;2023-04-10T00:12:58;100456.84;;;14.63;48.44
15678;BME280;7939;50.814;6.368;2023-04-10T00:15:27;100449.13;;;14.63;48.92
15678;BME280;7939;50.814;6.368;2023-04-10T00:17:54;100453.41;;;14.63;48.34
15678;BME280;7939;50.814;6.368;2023-04-10T00:20:22;100453.44;;;14.61;47.85
15678;BME280;7939;50.814;6.368;2023-04-10T00:22:50;100446.56;;;14.62;48.20
15678;BME280;7939;50.814;6.368;2023-04-10T00:25:17;100451.72;;;14.62;48.80
15678;BME280;7939;50.814;6.368;2023-04-10T00:27:43;100444.88;;;14.61;48.52
15678;BME280;7939;50.814;6.368;2023-04-10T00:30:10;100438.88;;;14.59;48.57
15678;BME280;7939;50.814;6.368;2023-04-10T00:32:37;100434.59;;;14.56;48.36
15678;BME280;7939;50.814;6.368;2023-04-10T00:35:04;100440.59;;;14.55;48.56
15678;BME280;7939;50.814;6.368;2023-04-10T00:37:32;100439.75;;;14.54;47.89
15678;BME280;7939;50.814;6.368;2023-04-10T00:39:58;100440.63;;;14.53;48.55
15678;BME280;7939;50.814;6.368;2023-04-10T00:42:25;100444.91;;;14.51;48.19
15678;BME280;7939;50.814;6.368;2023-04-10T00:44:52;100433.78;;;14.49;48.67
15678;BME280;7939;50.814;6.368;2023-04-10T00:47:19;100444.06;;;14.48;48.52
15678;BME280;7939;50.814;6.368;2023-04-10T00:49:46;100436.38;;;14.48;48.70
15678;BME280;7939;50.814;6.368;2023-04-10T00:52:13;100431.25;;;14.46;48.35
15678;BME280;7939;50.814;6.368;2023-04-10T00:54:42;100432.94;;;14.46;48.39
15678;BME280;7939;50.814;6.368;2023-04-10T00:57:08;100428.63;;;14.45;48.30
15678;BME280;7939;50.814;6.368;2023-04-10T00:59:35;100422.63;;;14.44;48.80
15678;BME280;7939;50.814;6.368;2023-04-10T01:02:02;100420.06;;;14.43;48.48
15678;BME280;7939;50.814;6.368;2023-04-10T01:04:29;100405.47;;;14.45;48.36
15678;BME280;7939;50.814;6.368;2023-04-10T01:06:58;100395.19;;;14.43;49.19
15678;BME280;7939;50.814;6.368;2023-04-10T01:09:34;100390.94;;;14.41;49.26
15678;BME280;7939;50.814;6.368;2023-04-10T01:12:14;100390.94;;;14.39;48.74
15678;BME280;7939;50.814;6.368;2023-04-10T01:14:48;100396.94;;;14.38;48.95
15678;BME280;7939;50.814;6.368;2023-04-10T01:17:21;100393.53;;;14.38;49.81
15678;BME280;7939;50.814;6.368;2023-04-10T01:19:59;100390.94;;;14.38;48.83
15678;BME280;7939;50.814;6.368;2023-04-10T01:22:33;100388.38;;;14.36;49.01
15678;BME280;7939;50.814;6.368;2023-04-10T01:25:09;100389.25;;;14.35;49.00
15678;BME280;7939;50.814;6.368;2023-04-10T01:27:55;100378.13;;;14.31;49.48
15678;BME280;7939;50.814;6.368;2023-04-10T01:30:25;100374.69;;;14.31;49.46
15678;BME280;7939;50.814;6.368;2023-04-10T01:32:54;100375.56;;;14.31;49.75
15678;BME280;7939;50.814;6.368;2023-04-10T01:35:24;100370.44;;;14.28;49.38
15678;BME280;7939;50.814;6.368;2023-04-10T01:37:55;100362.72;;;14.28;49.98
15678;BME280;7939;50.814;6.368;2023-04-10T01:40:24;100364.44;;;14.28;49.58
15678;BME280;7939;50.814;6.368;2023-04-10T01:42:55;100361.00;;;14.26;50.26
15678;BME280;7939;50.814;6.368;2023-04-10T01:45:26;100355.03;;;14.25;49.50
15678;BME280;7939;50.814;6.368;2023-04-10T01:47:54;100350.75;;;14.23;49.97
15678;BME280;7939;50.814;6.368;2023-04-10T01:50:21;100359.34;;;14.22;49.56
15678;BME280;7939;50.814;6.368;2023-04-10T01:52:49;100356.78;;;14.22;50.06
15678;BME280;7939;50.814;6.368;2023-04-10T01:55:17;100355.94;;;14.21;50.07
15678;BME280;7939;50.814;6.368;2023-04-10T01:57:45;100367.91;;;14.22;49.97
15678;BME280;7939;50.814;6.368;2023-04-10T02:00:13;100359.31;;;14.20;49.43
15678;BME280;7939;50.814;6.368;2023-04-10T02:02:42;100357.63;;;14.19;49.98
15678;BME280;7939;50.814;6.368;2023-04-10T02:05:09;100355.06;;;14.19;49.34
15678;BME280;7939;50.814;6.368;2023-04-10T02:07:40;100352.50;;;14.18;49.53
15678;BME280;7939;50.814;6.368;2023-04-10T02:10:12;100354.22;;;14.17;49.54
15678;BME280;7939;50.814;6.368;2023-04-10T02:12:45;100344.81;;;14.15;49.95
15678;BME280;7939;50.814;6.368;2023-04-10T02:15:13;100355.97;;;14.15;49.20
15678;BME280;7939;50.814;6.368;2023-04-10T02:17:43;100357.69;;;14.15;50.39
15678;BME280;7939;50.814;6.368;2023-04-10T02:20:11;100353.38;;;14.14;50.37
15678;BME280;7939;50.814;6.368;2023-04-10T02:22:39;100360.25;;;14.15;49.30
15678;BME280;7939;50.814;6.368;2023-04-10T02:25:09;100354.22;;;14.13;50.38
15678;BME280;7939;50.814;6.368;2023-04-10T02:27:36;100354.22;;;14.13;50.11
15678;BME280;7939;50.814;6.368;2023-04-10T02:30:04;100352.53;;;14.12;49.89
15678;BME280;7939;50.814;6.368;2023-04-10T02:32:31;100351.69;;;14.10;49.72
15678;BME280;7939;50.814;6.368;2023-04-10T02:35:00;100345.69;;;14.08;49.27
15678;BME280;7939;50.814;6.368;2023-04-10T02:37:27;100344.84;;;14.06;50.05
15678;BME280;7939;50.814;6.368;2023-04-10T02:39:54;100342.28;;;14.06;50.49
15678;BME280;7939;50.814;6.368;2023-04-10T02:42:20;100350.84;;;14.04;49.98
15678;BME280;7939;50.814;6.368;2023-04-10T02:44:47;100344.03;;;14.03;50.67
15678;BME280;7939;50.814;6.368;2023-04-10T02:47:13;100342.31;;;14.04;49.85
15678;BME280;7939;50.814;6.368;2023-04-10T02:49:40;100342.31;;;14.02;49.95
15678;BME280;7939;50.814;6.368;2023-04-10T02:52:08;100338.03;;;14.00;49.71
15678;BME280;7939;50.814;6.368;2023-04-10T02:54:34;100336.31;;;14.00;50.41
15678;BME280;7939;50.814;6.368;2023-04-10T02:57:01;100334.59;;;13.99;50.59
15678;BME280;7939;50.814;6.368;2023-04-10T02:59:29;100329.47;;;13.99;50.16
15678;BME280;7939;50.814;6.368;2023-04-10T03:01:56;100325.19;;;13.98;50.33
15678;BME280;7939;50.814;6.368;2023-04-10T03:04:22;100315.78;;;13.96;50.16
15678;BME280;7939;50.814;6.368;2023-04-10T03:06:49;100314.94;;;13.95;49.75
15678;BME280;7939;50.814;6.368;2023-04-10T03:09:17;100315.78;;;13.94;50.30
15678;BME280;7939;50.814;6.368;2023-04-10T03:11:44;100311.50;;;13.93;50.31
15678;BME280;7939;50.814;6.368;2023-04-10T03:14:11;100310.66;;;13.93;50.56
15678;BME280;7939;50.814;6.368;2023-04-10T03:16:37;100317.53;;;13.91;50.12
15678;BME280;7939;50.814;6.368;2023-04-10T03:19:04;100314.09;;;13.90;50.87
15678;BME280;7939;50.814;6.368;2023-04-10T03:21:30;100306.38;;;13.89;50.63
15678;BME280;7939;50.814;6.368;2023-04-10T03:23:57;100305.53;;;13.88;50.04
15678;BME280;7939;50.814;6.368;2023-04-10T03:26:25;100302.97;;;13.87;50.18
15678;BME280;7939;50.814;6.368;2023-04-10T03:28:52;100291.84;;;13.86;49.83
15678;BME280;7939;50.814;6.368;2023-04-10T03:31:18;100297.00;;;13.85;50.70
15678;BME280;7939;50.814;6.368;2023-04-10T03:33:45;100292.75;;;13.84;50.15
15678;BME280;7939;50.814;6.368;2023-04-10T03:36:12;100291.00;;;13.83;50.13
15678;BME280;7939;50.814;6.368;2023-04-10T03:38:38;100285.03;;;13.81;50.90
15678;BME280;7939;50.814;6.368;2023-04-10T03:41:05;100286.75;;;13.80;50.63
15678;BME280;7939;50.814;6.368;2023-04-10T03:43:33;100283.31;;;13.80;50.79
15678;BME280;7939;50.814;6.368;2023-04-10T03:46:00;100279.91;;;13.79;49.98
15678;BME280;7939;50.814;6.368;2023-04-10T03:48:26;100261.94;;;13.77;49.76
15678;BME280;7939;50.814;6.368;2023-04-10T03:50:55;100262.81;;;13.76;50.46
15678;BME280;7939;50.814;6.368;2023-04-10T03:53:21;100271.34;;;13.75;50.74
15678;BME280;7939;50.814;6.368;2023-04-10T03:55:48;100276.50;;;13.74;49.95
15678;BME280;7939;50.814;6.368;2023-04-10T03:58:16;100275.66;;;13.73;50.54
15678;BME280;7939;50.814;6.368;2023-04-10T04:00:44;100276.50;;;13.72;50.59
15678;BME280;7939;50.814;6.368;2023-04-10T04:03:11;100273.97;;;13.71;50.40
15678;BME280;7939;50.814;6.368;2023-04-10T04:05:37;100280.81;;;13.70;50.20
15678;BME280;7939;50.814;6.368;2023-04-10T04:08:04;100284.22;;;13.69;50.61
15678;BME280;7939;50.814;6.368;2023-04-10T04:10:31;100271.41;;;13.68;50.84
15678;BME280;7939;50.814;6.368;2023-04-10T04:12:57;100270.56;;;13.66;50.70
15678;BME280;7939;50.814;6.368;2023-04-10T04:15:24;100271.41;;;13.66;50.71
15678;BME280;7939;50.814;6.368;2023-04-10T04:17:52;100273.13;;;13.66;49.81
15678;BME280;7939;50.814;6.368;2023-04-10T04:20:19;100274.81;;;13.64;50.31
15678;BME280;7939;50.814;6.368;2023-04-10T04:22:45;100272.28;;;13.62;50.76
15678;BME280;7939;50.814;6.368;2023-04-10T04:25:12;100269.69;;;13.62;50.65
15678;BME280;7939;50.814;6.368;2023-04-10T04:27:39;100258.59;;;13.60;49.89
15678;BME280;7939;50.814;6.368;2023-04-10T04:30:06;100260.31;;;13.60;50.89
15678;BME280;7939;50.814;6.368;2023-04-10T04:32:33;100268.00;;;13.60;50.07
15678;BME280;7939;50.814;6.368;2023-04-10T04:35:01;100262.91;;;13.58;50.95
15678;BME280;7939;50.814;6.368;2023-04-10T04:37:28;100265.47;;;13.58;50.09
15678;BME280;7939;50.814;6.368;2023-04-10T04:39:55;100269.72;;;13.56;49.88
15678;BME280;7939;50.814;6.368;2023-04-10T04:42:21;100274.88;;;13.56;50.65
15678;BME280;7939;50.814;6.368;2023-04-10T04:44:48;100274.88;;;13.55;51.20
15678;BME280;7939;50.814;6.368;2023-04-10T04:47:15;100280.03;;;13.53;50.01
15678;BME280;7939;50.814;6.368;2023-04-10T04:49:42;100278.31;;;13.52;50.76
15678;BME280;7939;50.814;6.368;2023-04-10T04:52:10;100284.28;;;13.51;50.70
15678;BME280;7939;50.814;6.368;2023-04-10T04:54:36;100279.16;;;13.51;50.16
15678;BME280;7939;50.814;6.368;2023-04-10T04:57:03;100277.47;;;13.50;51.05
15678;BME280;7939;50.814;6.368;2023-04-10T04:59:29;100268.91;;;13.48;50.47
15678;BME280;7939;50.814;6.368;2023-04-10T05:01:56;100259.50;;;13.47;49.75
15678;BME280;7939;50.814;6.368;2023-04-10T05:04:23;100259.50;;;13.47;50.86
15678;BME280;7939;50.814;6.368;2023-04-10T05:06:49;100258.66;;;13.46;51.58
15678;BME280;7939;50.814;6.368;2023-04-10T05:09:17;100259.53;;;13.45;50.99
15678;BME280;7939;50.814;6.368;2023-04-10T05:11:44;100268.06;;;13.44;51.06
15678;BME280;7939;50.814;6.368;2023-04-10T05:14:11;100251.81;;;13.42;51.53
15678;BME280;7939;50.814;6.368;2023-04-10T05:16:38;100253.56;;;13.40;51.36
15678;BME280;7939;50.814;6.368;2023-04-10T05:19:04;100266.38;;;13.40;50.55
15678;BME280;7939;50.814;6.368;2023-04-10T05:21:31;100252.69;;;13.38;50.28
15678;BME280;7939;50.814;6.368;2023-04-10T05:23:57;100253.56;;;13.39;51.66
15678;BME280;7939;50.814;6.368;2023-04-10T05:26:26;100249.25;;;13.38;50.26
15678;BME280;7939;50.814;6.368;2023-04-10T05:28:52;100261.25;;;13.37;50.62
15678;BME280;7939;50.814;6.368;2023-04-10T05:31:19;100262.09;;;13.38;51.41
15678;BME280;7939;50.814;6.368;2023-04-10T05:33:45;100260.41;;;13.37;51.37
15678;BME280;7939;50.814;6.368;2023-04-10T05:36:12;100268.09;;;13.37;51.39
15678;BME280;7939;50.814;6.368;2023-04-10T05:38:38;100264.69;;;13.36;51.44
15678;BME280;7939;50.814;6.368;2023-04-10T05:41:05;100264.69;;;13.36;50.75
15678;BME280;7939;50.814;6.368;2023-04-10T05:43:33;100251.88;;;13.33;51.96
15678;BME280;7939;50.814;6.368;2023-04-10T05:46:00;100251.03;;;13.33;51.14
15678;BME280;7939;50.814;6.368;2023-04-10T05:48:27;100254.41;;;13.32;51.56
15678;BME280;7939;50.814;6.368;2023-04-10T05:50:53;100265.53;;;13.32;50.27
15678;BME280;7939;50.814;6.368;2023-04-10T05:53:20;100250.16;;;13.31;51.08
15678;BME280;7939;50.814;6.368;2023-04-10T05:55:49;100251.00;;;13.31;50.88
15678;BME280;7939;50.814;6.368;2023-04-10T05:58:16;100255.28;;;13.31;51.08
15678;BME280;7939;50.814;6.368;2023-04-10T06:00:44;100255.28;;;13.31;50.35
15678;BME280;7939;50.814;6.368;2023-04-10T06:03:11;100249.28;;;13.30;50.03
15678;BME280;7939;50.814;6.368;2023-04-10T06:05:37;100244.16;;;13.30;50.13
15678;BME280;7939;50.814;6.368;2023-04-10T06:08:05;100241.63;;;13.29;50.38
15678;BME280;7939;50.814;6.368;2023-04-10T06:10:32;100227.06;;;13.28;50.18
15678;BME280;7939;50.814;6.368;2023-04-10T06:12:59;100240.75;;;13.28;50.05
15678;BME280;7939;50.814;6.368;2023-04-10T06:15:26;100233.06;;;13.27;50.44
15678;BME280;7939;50.814;6.368;2023-04-10T06:17:54;100233.06;;;13.27;50.81
15678;BME280;7939;50.814;6.368;2023-04-10T06:20:21;100244.19;;;13.27;51.09
15678;BME280;7939;50.814;6.368;2023-04-10T06:22:47;100236.47;;;13.26;49.89
15678;BME280;7939;50.814;6.368;2023-04-10T06:25:14;100243.34;;;13.27;51.21
15678;BME280;7939;50.814;6.368;2023-04-10T06:27:40;100243.34;;;13.27;50.01
15678;BME280;7939;50.814;6.368;2023-04-10T06:30:08;100229.63;;;13.26;50.38
15678;BME280;7939;50.814;6.368;2023-04-10T06:32:35;100235.66;;;13.27;50.04
15678;BME280;7939;50.814;6.368;2023-04-10T06:35:04;100229.66;;;13.28;50.65
15678;BME280;7939;50.814;6.368;2023-04-10T06:37:31;100224.50;;;13.26;51.04
15678;BME280;7939;50.814;6.368;2023-04-10T06:40:03;100235.63;;;13.28;51.29
15678;BME280;7939;50.814;6.368;2023-04-10T06:42:30;100227.06;;;13.26;50.78
15678;BME280;7939;50.814;6.368;2023-04-10T06:44:56;100229.66;;;13.28;50.33
15678;BME280;7939;50.814;6.368;2023-04-10T06:47:23;100228.78;;;13.26;50.86
15678;BME280;7939;50.814;6.368;2023-04-10T06:49:50;100229.66;;;13.28;49.83
15678;BME280;7939;50.814;6.368;2023-04-10T06:52:19;100229.66;;;13.28;50.14
15678;BME280;7939;50.814;6.368;2023-04-10T06:54:46;100231.34;;;13.27;51.16
15678;BME280;7939;50.814;6.368;2023-04-10T06:57:12;100230.50;;;13.27;50.34
15678;BME280;7939;50.814;6.368;2023-04-10T06:59:39;100228.78;;;13.27;50.36
15678;BME280;7939;50.814;6.368;2023-04-10T07:02:06;100232.22;;;13.28;49.88
15678;BME280;7939;50.814;6.368;2023-04-10T07:04:33;100228.78;;;13.29;50.24
15678;BME280;7939;50.814;6.368;2023-04-10T07:06:59;100229.63;;;13.29;50.35
15678;BME280;7939;50.814;6.368;2023-04-10T07:09:28;100230.47;;;13.30;50.08
15678;BME280;7939;50.814;6.368;2023-04-10T07:11:54;100231.34;;;13.29;50.51
15678;BME280;7939;50.814;6.368;2023-04-10T07:14:21;100230.47;;;13.31;49.78
15678;BME280;7939;50.814;6.368;2023-04-10T07:16:48;100228.75;;;13.30;50.21
15678;BME280;7939;50.814;6.368;2023-04-10T07:19:15;100229.63;;;13.31;50.21
15678;BME280;7939;50.814;6.368;2023-04-10T07:21:42;100222.75;;;13.31;50.47
15678;BME280;7939;50.814;6.368;2023-04-10T07:24:08;100226.19;;;13.32;50.30
15678;BME280;7939;50.814;6.368;2023-04-10T07:26:37;100231.34;;;13.33;50.89
15678;BME280;7939;50.814;6.368;2023-04-10T07:29:04;100224.50;;;13.34;51.01
15678;BME280;7939;50.814;6.368;2023-04-10T07:31:30;100223.63;;;13.35;50.46
15678;BME280;7939;50.814;6.368;2023-04-10T07:33:57;100217.59;;;13.37;51.24
15678;BME280;7939;50.814;6.368;2023-04-10T07:36:24;100206.50;;;13.37;50.07
15678;BME280;7939;50.814;6.368;2023-04-10T07:38:51;100203.94;;;13.40;50.22
15678;BME280;7939;50.814;6.368;2023-04-10T07:41:17;100197.06;;;13.40;51.05
15678;BME280;7939;50.814;6.368;2023-04-10T07:43:46;100197.91;;;13.44;50.31
15678;BME280;7939;50.814;6.368;2023-04-10T07:46:13;100188.50;;;13.43;50.62
15678;BME280;7939;50.814;6.368;2023-04-10T07:48:39;100197.03;;;13.45;50.23
15678;BME280;7939;50.814;6.368;2023-04-10T07:51:06;100190.19;;;13.47;50.49
15678;BME280;7939;50.814;6.368;2023-04-10T07:53:34;100185.03;;;13.50;50.89
15678;BME280;7939;50.814;6.368;2023-04-10T07:56:01;100183.31;;;13.52;51.47
15678;BME280;7939;50.814;6.368;2023-04-10T07:58:28;100179.00;;;13.56;51.05
15678;BME280;7939;50.814;6.368;2023-04-10T08:00:56;100175.59;;;13.58;50.99
15678;BME280;7939;50.814;6.368;2023-04-10T08:03:23;100169.59;;;13.59;50.83
15678;BME280;7939;50.814;6.368;2023-04-10T08:05:50;100172.09;;;13.64;50.54
15678;BME280;7939;50.814;6.368;2023-04-10T08:08:16;100172.97;;;13.64;50.94
15678;BME280;7939;50.814;6.368;2023-04-10T08:10:43;100162.69;;;13.67;50.56
15678;BME280;7939;50.814;6.368;2023-04-10T08:13:10;100163.53;;;13.68;51.37
15678;BME280;7939;50.814;6.368;2023-04-10T08:15:36;100162.66;;;13.69;51.70
15678;BME280;7939;50.814;6.368;2023-04-10T08:18:04;100157.53;;;13.72;51.31
15678;BME280;7939;50.814;6.368;2023-04-10T08:20:31;100150.63;;;13.75;51.31
15678;BME280;7939;50.814;6.368;2023-04-10T08:23:01;100145.47;;;13.79;51.38
15678;BME280;7939;50.814;6.368;2023-04-10T08:25:28;100134.31;;;13.83;51.30
15678;BME280;7939;50.814;6.368;2023-04-10T08:27:55;100124.88;;;13.86;51.75
15678;BME280;7939;50.814;6.368;2023-04-10T08:30:22;100130.84;;;13.88;51.82
15678;BME280;7939;50.814;6.368;2023-04-10T08:32:48;100125.69;;;13.91;51.43
15678;BME280;7939;50.814;6.368;2023-04-10T08:35:16;100123.94;;;13.93;51.54
15678;BME280;7939;50.814;6.368;2023-04-10T08:37:43;100123.09;;;13.96;51.46
15678;BME280;7939;50.814;6.368;2023-04-10T08:40:10;100117.06;;;13.98;51.74
15678;BME280;7939;50.814;6.368;2023-04-10T08:42:37;100114.44;;;14.01;51.22
15678;BME280;7939;50.814;6.368;2023-04-10T08:45:04;100117.03;;;14.03;51.26
15678;BME280;7939;50.814;6.368;2023-04-10T08:47:35;100112.72;;;14.05;50.57
15678;BME280;7939;50.814;6.368;2023-04-10T08:50:05;100097.28;;;14.08;51.05
15678;BME280;7939;50.814;6.368;2023-04-10T08:52:33;100094.69;;;14.11;50.92
15678;BME280;7939;50.814;6.368;2023-04-10T08:55:06;100096.34;;;14.14;51.56
15678;BME280;7939;50.814;6.368;2023-04-10T08:57:35;100098.88;;;14.18;51.17
15678;BME280;7939;50.814;6.368;2023-04-10T09:00:04;100094.59;;;14.22;51.03
15678;BME280;7939;50.814;6.368;2023-04-10T09:02:31;100093.69;;;14.24;50.68
15678;BME280;7939;50.814;6.368;2023-04-10T09:04:59;100105.66;;;14.28;50.38
15678;BME280;7939;50.814;6.368;2023-04-10T09:07:28;100097.91;;;14.33;50.46
15678;BME280;7939;50.814;6.368;2023-04-10T09:09:56;100097.84;;;14.36;50.99
15678;BME280;7939;50.814;6.368;2023-04-10T09:12:23;100104.69;;;14.40;50.21
15678;BME280;7939;50.814;6.368;2023-04-10T09:14:49;100110.59;;;14.45;50.48
15678;BME280;7939;50.814;6.368;2023-04-10T09:17:19;100110.59;;;14.50;50.24
15678;BME280;7939;50.814;6.368;2023-04-10T09:19:47;100107.13;;;14.54;50.28
15678;BME280;7939;50.814;6.368;2023-04-10T09:22:14;100105.38;;;14.57;50.24
15678;BME280;7939;50.814;6.368;2023-04-10T09:24:43;100095.91;;;14.61;50.39
15678;BME280;7939;50.814;6.368;2023-04-10T09:27:26;100099.31;;;14.65;50.14
15678;BME280;7939;50.814;6.368;2023-04-10T09:29:53;100094.91;;;14.73;50.49
15678;BME280;7939;50.814;6.368;2023-04-10T09:32:36;100094.88;;;14.77;50.42
15678;BME280;7939;50.814;6.368;2023-04-10T09:35:03;100092.28;;;14.79;51.05
15678;BME280;7939;50.814;6.368;2023-04-10T09:37:31;100092.22;;;14.83;50.00
15678;BME280;7939;50.814;6.368;2023-04-10T09:39:57;100092.19;;;14.85;50.68
15678;BME280;7939;50.814;6.368;2023-04-10T09:42:30;100087.00;;;14.90;48.99
15678;BME280;7939;50.814;6.368;2023-04-10T09:44:58;100075.84;;;14.91;49.77
15678;BME280;7939;50.814;6.368;2023-04-10T09:47:25;100071.44;;;14.96;50.52
15678;BME280;7939;50.814;6.368;2023-04-10T09:49:54;100064.56;;;14.99;50.18
15678;BME280;7939;50.814;6.368;2023-04-10T09:52:23;100073.91;;;15.05;49.80
15678;BME280;7939;50.814;6.368;2023-04-10T09:54:51;100062.75;;;15.06;48.63
15678;BME280;7939;50.814;6.368;2023-04-10T09:57:20;100059.31;;;15.08;49.04
15678;BME280;7939;50.814;6.368;2023-04-10T09:59:49;100057.47;;;15.14;49.06
15678;BME280;7939;50.814;6.368;2023-04-10T10:02:17;100049.69;;;15.18;49.47
15678;BME280;7939;50.814;6.368;2023-04-10T10:04:45;100043.66;;;15.21;49.58
15678;BME280;7939;50.814;6.368;2023-04-10T10:07:13;100035.88;;;15.25;49.04
15678;BME280;7939;50.814;6.368;2023-04-10T10:09:41;100033.19;;;15.31;49.33
15678;BME280;7939;50.814;6.368;2023-04-10T10:12:09;100030.56;;;15.36;48.96
15678;BME280;7939;50.814;6.368;2023-04-10T10:14:42;100024.47;;;15.42;48.52
15678;BME280;7939;50.814;6.368;2023-04-10T10:17:14;100013.28;;;15.43;48.63
15678;BME280;7939;50.814;6.368;2023-04-10T10:19:48;100015.78;;;15.47;48.83
15678;BME280;7939;50.814;6.368;2023-04-10T10:22:18;100017.44;;;15.53;48.37
15678;BME280;7939;50.814;6.368;2023-04-10T10:24:45;100006.19;;;15.57;48.50
15678;BME280;7939;50.814;6.368;2023-04-10T10:27:14;100004.44;;;15.59;48.46
15678;BME280;7939;50.814;6.368;2023-04-10T10:29:43;99992.38;;;15.61;48.31
15678;BME280;7939;50.814;6.368;2023-04-10T10:32:13;100006.09;;;15.61;48.13
15678;BME280;7939;50.814;6.368;2023-04-10T10:34:41;99993.19;;;15.64;48.06
15678;BME280;7939;50.814;6.368;2023-04-10T10:37:08;99980.19;;;15.71;48.07
15678;BME280;7939;50.814;6.368;2023-04-10T10:39:43;99981.03;;;15.71;48.33
15678;BME280;7939;50.814;6.368;2023-04-10T10:42:19;99970.75;;;15.73;47.82
15678;BME280;7939;50.814;6.368;2023-04-10T10:44:53;99964.69;;;15.74;48.12
15678;BME280;7939;50.814;6.368;2023-04-10T10:47:27;99959.50;;;15.75;47.99
15678;BME280;7939;50.814;6.368;2023-04-10T10:49:56;99950.06;;;15.76;48.67
15678;BME280;7939;50.814;6.368;2023-04-10T10:52:42;99964.63;;;15.78;47.93
15678;BME280;7939;50.814;6.368;2023-04-10T10:55:29;99949.09;;;15.81;47.84
15678;BME280;7939;50.814;6.368;2023-04-10T10:58:03;99949.00;;;15.86;47.98
15678;BME280;7939;50.814;6.368;2023-04-10T11:01:05;99943.81;;;15.87;47.72
15678;BME280;7939;50.814;6.368;2023-04-10T11:03:34;99951.50;;;15.90;47.88
15678;BME280;7939;50.814;6.368;2023-04-10T11:06:04;99953.16;;;15.93;48.16
15678;BME280;7939;50.814;6.368;2023-04-10T11:08:36;99941.97;;;15.94;47.70
15678;BME280;7939;50.814;6.368;2023-04-10T11:11:08;99931.63;;;15.96;47.70
15678;BME280;7939;50.814;6.368;2023-04-10T11:13:36;99925.63;;;15.97;47.18
15678;BME280;7939;50.814;6.368;2023-04-10T11:16:05;99915.31;;;15.97;47.27
15678;BME280;7939;50.814;6.368;2023-04-10T11:19:05;99919.50;;;16.01;47.85
15678;BME280;7939;50.814;6.368;2023-04-10T11:21:32;99921.25;;;16.00;47.22
15678;BME280;7939;50.814;6.368;2023-04-10T11:24:03;99922.03;;;16.04;46.79
15678;BME280;7939;50.814;6.368;2023-04-10T11:26:38;99919.38;;;16.07;46.85
15678;BME280;7939;50.814;6.368;2023-04-10T11:29:31;99918.53;;;16.06;46.41
15678;BME280;7939;50.814;6.368;2023-04-10T11:31:59;99912.50;;;16.07;46.35
15678;BME280;7939;50.814;6.368;2023-04-10T11:34:29;99913.31;;;16.11;47.34
15678;BME280;7939;50.814;6.368;2023-04-10T11:36:57;99907.31;;;16.09;47.37
15678;BME280;7939;50.814;6.368;2023-04-10T11:39:25;99907.25;;;16.12;47.02
15678;BME280;7939;50.814;6.368;2023-04-10T11:41:53;99899.47;;;16.13;46.99
15678;BME280;7939;50.814;6.368;2023-04-10T11:44:27;99898.59;;;16.14;47.34
15678;BME280;7939;50.814;6.368;2023-04-10T11:46:54;99893.44;;;16.14;46.80
15678;BME280;7939;50.814;6.368;2023-04-10T11:49:21;99886.53;;;16.16;47.22
15678;BME280;7939;50.814;6.368;2023-04-10T11:51:50;99884.72;;;16.20;46.89
15678;BME280;7939;50.814;6.368;2023-04-10T11:54:18;99874.28;;;16.26;47.23
15678;BME280;7939;50.814;6.368;2023-04-10T11:56:55;99868.25;;;16.27;46.79
15678;BME280;7939;50.814;6.368;2023-04-10T11:59:22;99865.66;;;16.29;46.17
15678;BME280;7939;50.814;6.368;2023-04-10T12:01:50;99860.38;;;16.33;45.98
15678;BME280;7939;50.814;6.368;2023-04-10T12:04:19;99850.84;;;16.37;45.96
15678;BME280;7939;50.814;6.368;2023-04-10T12:06:46;99848.19;;;16.40;46.12
15678;BME280;7939;50.814;6.368;2023-04-10T12:09:16;99836.13;;;16.42;46.49
15678;BME280;7939;50.814;6.368;2023-04-10T12:11:50;99844.63;;;16.45;46.43
15678;BME280;7939;50.814;6.368;2023-04-10T12:14:18;99839.31;;;16.52;46.53
15678;BME280;7939;50.814;6.368;2023-04-10T12:16:46;99846.91;;;16.58;46.21
15678;BME280;7939;50.814;6.368;2023-04-10T12:19:14;99845.97;;;16.62;46.34
15678;BME280;7939;50.814;6.368;2023-04-10T12:21:44;99838.94;;;16.68;46.31
15678;BME280;7939;50.814;6.368;2023-04-10T12:24:12;99837.88;;;16.79;46.23
15678;BME280;7939;50.814;6.368;2023-04-10T12:26:46;99830.88;;;16.82;46.04
15678;BME280;7939;50.814;6.368;2023-04-10T12:29:13;99826.59;;;16.81;46.33
15678;BME280;7939;50.814;6.368;2023-04-10T12:31:39;99824.97;;;16.79;45.62
15678;BME280;7939;50.814;6.368;2023-04-10T12:34:06;99822.28;;;16.82;46.48
15678;BME280;7939;50.814;6.368;2023-04-10T12:36:35;99816.25;;;16.83;46.33
15678;BME280;7939;50.814;6.368;2023-04-10T12:39:03;99815.41;;;16.82;46.05
15678;BME280;7939;50.814;6.368;2023-04-10T12:41:31;99818.81;;;16.83;45.81
15678;BME280;7939;50.814;6.368;2023-04-10T12:44:10;99814.34;;;16.89;45.68
15678;BME280;7939;50.814;6.368;2023-04-10T12:46:38;99810.03;;;16.90;46.33
15678;BME280;7939;50.814;6.368;2023-04-10T12:49:09;99812.56;;;16.93;45.71
15678;BME280;7939;50.814;6.368;2023-04-10T12:51:44;99811.56;;;16.97;45.92
15678;BME280;7939;50.814;6.368;2023-04-10T12:54:25;99811.56;;;16.97;45.12
15678;BME280;7939;50.814;6.368;2023-04-10T12:56:52;99813.25;;;16.99;45.64
15678;BME280;7939;50.814;6.368;2023-04-10T12:59:20;99809.72;;;17.04;45.77
15678;BME280;7939;50.814;6.368;2023-04-10T13:01:47;99808.81;;;17.05;45.40
15678;BME280;7939;50.814;6.368;2023-04-10T13:04:13;99799.38;;;17.04;44.95
15678;BME280;7939;50.814;6.368;2023-04-10T13:06:41;99792.47;;;17.04;44.55
15678;BME280;7939;50.814;6.368;2023-04-10T13:09:08;99793.28;;;17.06;45.19